createdAt,value
2023-04-18T00:00:38.521Z,949.00
2023-04-18T00:01:38.507Z,952.00
2023-04-18T00:02:38.723Z,950.00
2023-04-18T00:03:38.620Z,956.00
2023-04-18T00:04:38.662Z,961.00
2023-04-18T00:05:38.463Z,951.00
2023-04-18T00:06:38.483Z,951.00
2023-04-18T00:07:38.524Z,954.00
2023-04-18T00:08:38.562Z,943.00
2023-04-18T00:09:38.581Z,948.00
2023-04-18T00:10:38.583Z,947.00
2023-04-18T00:11:38.564Z,943.00
2023-04-18T00:12:38.594Z,944.00
2023-04-18T00:13:38.629Z,936.00
2023-04-18T00:14:38.663Z,945.00
2023-04-18T00:15:38.671Z,950.00
2023-04-18T00:16:38.702Z,937.00
2023-04-18T00:17:38.798Z,933.00
2023-04-18T00:18:38.729Z,934.00
2023-04-18T00:19:38.767Z,934.00
2023-04-18T00:20:38.865Z,952.00
2023-04-18T00:21:38.819Z,943.00
2023-04-18T00:22:38.819Z,942.00
2023-04-18T00:23:38.837Z,943.00
2023-04-18T00:24:38.862Z,929.00
2023-04-18T00:25:39.019Z,947.00
2023-04-18T00:26:38.899Z,941.00
2023-04-18T00:27:38.923Z,939.00
2023-04-18T00:28:38.982Z,926.00
2023-04-18T00:29:38.966Z,943.00
2023-04-18T00:30:38.990Z,940.00
2023-04-18T00:31:39.013Z,939.00
2023-04-18T00:32:39.046Z,935.00
2023-04-18T00:33:39.059Z,937.00
2023-04-18T00:34:39.065Z,927.00
2023-04-18T00:35:39.082Z,924.00
2023-04-18T00:36:39.093Z,923.00
2023-04-18T00:37:39.116Z,912.00
2023-04-18T00:38:39.134Z,927.00
2023-04-18T00:39:39.187Z,920.00
2023-04-18T00:40:39.205Z,928.00
2023-04-18T00:41:39.235Z,913.00
2023-04-18T00:42:39.219Z,912.00
2023-04-18T00:43:39.230Z,902.00
2023-04-18T00:44:39.256Z,908.00
2023-04-18T00:45:39.277Z,913.00
2023-04-18T00:46:39.371Z,922.00
2023-04-18T00:47:39.364Z,920.00
2023-04-18T00:48:39.356Z,920.00
2023-04-18T00:49:39.400Z,919.00
2023-04-18T00:50:39.378Z,915.00
2023-04-18T00:51:39.391Z,931.00
2023-04-18T00:52:39.455Z,917.00
2023-04-18T00:53:39.464Z,909.00
2023-04-18T00:54:39.493Z,903.00
2023-04-18T00:55:39.507Z,908.00
2023-04-18T00:56:39.521Z,915.00
2023-04-18T00:57:39.548Z,910.00
2023-04-18T00:58:39.557Z,902.00
2023-04-18T00:59:39.597Z,909.00
2023-04-18T01:00:39.618Z,899.00
2023-04-18T01:01:39.649Z,902.00
2023-04-18T01:02:39.800Z,912.00
2023-04-18T01:03:39.918Z,903.00
2023-04-18T01:04:39.776Z,908.00
2023-04-18T01:05:40.182Z,913.00
2023-04-18T01:06:39.724Z,912.00
2023-04-18T01:07:39.755Z,911.00
2023-04-18T01:08:39.786Z,893.00
2023-04-18T01:09:39.825Z,900.00
2023-04-18T01:10:39.818Z,913.00
2023-04-18T01:11:39.873Z,904.00
2023-04-18T01:12:39.881Z,900.00
2023-04-18T01:13:39.888Z,903.00
2023-04-18T01:14:39.946Z,909.00
2023-04-18T01:15:40.001Z,909.00
2023-04-18T01:16:39.970Z,901.00
2023-04-18T01:17:40.027Z,906.00
2023-04-18T01:18:40.009Z,895.00
2023-04-18T01:19:40.080Z,902.00
2023-04-18T01:20:40.052Z,895.00
2023-04-18T01:21:40.059Z,889.00
2023-04-18T01:22:40.109Z,879.00
2023-04-18T01:23:40.107Z,901.00
2023-04-18T01:24:40.129Z,889.00
2023-04-18T01:25:40.212Z,895.00
2023-04-18T01:26:40.187Z,895.00
2023-04-18T01:27:40.224Z,894.00
2023-04-18T01:28:40.225Z,883.00
2023-04-18T01:29:40.299Z,890.00
2023-04-18T01:30:40.268Z,883.00
2023-04-18T01:31:40.342Z,892.00
2023-04-18T01:32:40.457Z,872.00
2023-04-18T01:33:40.354Z,874.00
2023-04-18T01:34:40.426Z,896.00
2023-04-18T01:35:40.415Z,878.00
2023-04-18T01:36:40.417Z,868.00
2023-04-18T01:37:40.481Z,872.00
2023-04-18T01:38:40.463Z,867.00
2023-04-18T01:39:40.526Z,873.00
2023-04-18T01:40:40.531Z,880.00
2023-04-18T01:41:40.543Z,875.00
2023-04-18T01:42:40.598Z,866.00
2023-04-18T01:43:40.632Z,857.00
2023-04-18T01:44:40.613Z,872.00
2023-04-18T01:45:40.683Z,878.00
2023-04-18T01:46:40.767Z,888.00
2023-04-18T01:47:40.714Z,885.00
2023-04-18T01:48:40.731Z,869.00
2023-04-18T01:49:40.758Z,871.00
2023-04-18T01:50:40.779Z,866.00
2023-04-18T01:51:40.820Z,884.00
2023-04-18T01:52:40.820Z,868.00
2023-04-18T01:53:40.880Z,876.00
2023-04-18T01:54:40.878Z,865.00
2023-04-18T01:55:40.931Z,860.00
2023-04-18T01:56:40.955Z,865.00
2023-04-18T01:57:40.992Z,885.00
2023-04-18T01:58:40.981Z,860.00
2023-04-18T01:59:41.056Z,859.00
2023-04-18T02:00:41.145Z,858.00
2023-04-18T02:01:41.088Z,879.00
2023-04-18T02:02:41.210Z,858.00
2023-04-18T02:03:41.299Z,862.00
2023-04-18T02:04:41.136Z,870.00
2023-04-18T02:05:41.184Z,855.00
2023-04-18T02:06:41.188Z,872.00
2023-04-18T02:07:41.227Z,866.00
2023-04-18T02:08:41.267Z,853.00
2023-04-18T02:09:41.280Z,852.00
2023-04-18T02:10:41.352Z,864.00
2023-04-18T02:11:41.324Z,854.00
2023-04-18T02:12:41.356Z,841.00
2023-04-18T02:13:41.372Z,837.00
2023-04-18T02:14:41.427Z,852.00
2023-04-18T02:15:41.460Z,842.00
2023-04-18T02:16:41.544Z,853.00
2023-04-18T02:17:41.652Z,835.00
2023-04-18T02:18:41.521Z,828.00
2023-04-18T02:19:41.598Z,829.00
2023-04-18T02:20:41.589Z,818.00
2023-04-18T02:21:41.635Z,827.00
2023-04-18T02:22:41.672Z,827.00
2023-04-18T02:23:41.676Z,832.00
2023-04-18T02:24:41.715Z,824.00
2023-04-18T02:25:41.739Z,820.00
2023-04-18T02:26:41.812Z,829.00
2023-04-18T02:27:41.798Z,808.00
2023-04-18T02:28:41.827Z,830.00
2023-04-18T02:29:41.876Z,830.00
2023-04-18T02:30:41.885Z,819.00
2023-04-18T02:31:41.941Z,808.00
2023-04-18T02:32:41.984Z,813.00
2023-04-18T02:33:41.971Z,817.00
2023-04-18T02:34:41.999Z,829.00
2023-04-18T02:35:42.039Z,819.00
2023-04-18T02:36:42.040Z,822.00
2023-04-18T02:37:42.064Z,813.00
2023-04-18T02:38:42.150Z,810.00
2023-04-18T02:39:42.127Z,806.00
2023-04-18T02:40:42.179Z,817.00
2023-04-18T02:41:42.175Z,802.00
2023-04-18T02:42:42.189Z,810.00
2023-04-18T02:43:42.221Z,814.00
2023-04-18T02:44:42.258Z,829.00
2023-04-18T02:45:42.298Z,807.00
2023-04-18T02:46:42.328Z,808.00
2023-04-18T02:47:53.873Z,824.00
2023-04-18T02:48:43.321Z,825.00
2023-04-18T02:49:42.331Z,826.00
2023-04-18T02:50:42.302Z,818.00
2023-04-18T02:51:42.304Z,820.00
2023-04-18T02:52:42.316Z,808.00
2023-04-18T02:53:42.280Z,803.00
2023-04-18T02:54:42.301Z,807.00
2023-04-18T02:55:42.269Z,800.00
2023-04-18T02:56:42.274Z,797.00
2023-04-18T02:57:42.301Z,808.00
2023-04-18T02:58:42.246Z,794.00
2023-04-18T02:59:42.248Z,800.00
2023-04-18T03:00:42.227Z,802.00
2023-04-18T03:01:42.270Z,783.00
2023-04-18T03:02:42.323Z,789.00
2023-04-18T03:03:42.240Z,802.00
2023-04-18T03:04:42.279Z,790.00
2023-04-18T03:05:42.224Z,785.00
2023-04-18T03:06:42.337Z,793.00
2023-04-18T03:07:42.260Z,792.00
2023-04-18T03:08:42.292Z,790.00
2023-04-18T03:09:42.330Z,783.00
2023-04-18T03:10:42.363Z,789.00
2023-04-18T03:11:42.380Z,792.00
2023-04-18T03:12:42.412Z,795.00
2023-04-18T03:13:42.442Z,798.00
2023-04-18T03:14:42.478Z,795.00
2023-04-18T03:15:42.539Z,793.00
2023-04-18T03:16:42.524Z,792.00
2023-04-18T03:17:42.623Z,780.00
2023-04-18T03:18:42.589Z,779.00
2023-04-18T03:19:42.707Z,795.00
2023-04-18T03:20:42.662Z,791.00
2023-04-18T03:21:42.728Z,793.00
2023-04-18T03:22:42.754Z,799.00
2023-04-18T03:23:42.753Z,792.00
2023-04-18T03:24:42.834Z,800.00
2023-04-18T03:25:42.823Z,792.00
2023-04-18T03:26:42.930Z,802.00
2023-04-18T03:27:42.940Z,795.00
2023-04-18T03:28:43.017Z,781.00
2023-04-18T03:29:43.094Z,785.00
2023-04-18T03:30:43.149Z,782.00
2023-04-18T03:31:43.268Z,781.00
2023-04-18T03:32:43.284Z,782.00
2023-04-18T03:33:43.283Z,787.00
2023-04-18T03:34:43.335Z,795.00
2023-04-18T03:35:43.452Z,783.00
2023-04-18T03:36:44.515Z,787.00
2023-04-18T03:37:43.506Z,798.00
2023-04-18T03:38:43.592Z,795.00
2023-04-18T03:39:43.619Z,777.00
2023-04-18T03:40:43.659Z,783.00
2023-04-18T03:41:43.707Z,786.00
2023-04-18T03:42:43.731Z,788.00
2023-04-18T03:43:43.755Z,781.00
2023-04-18T03:44:43.843Z,781.00
2023-04-18T03:45:43.817Z,789.00
2023-04-18T03:46:43.960Z,783.00
2023-04-18T03:47:43.989Z,792.00
2023-04-18T03:48:43.948Z,779.00
2023-04-18T03:49:44.017Z,791.00
2023-04-18T03:50:44.030Z,783.00
2023-04-18T03:51:44.043Z,774.00
2023-04-18T03:52:44.136Z,779.00
2023-04-18T03:53:44.170Z,777.00
2023-04-18T03:54:44.205Z,785.00
2023-04-18T03:55:44.216Z,788.00
2023-04-18T03:56:44.247Z,790.00
2023-04-18T03:57:44.284Z,773.00
2023-04-18T03:58:44.346Z,781.00
2023-04-18T03:59:45.585Z,771.00
2023-04-18T04:00:44.383Z,776.00
2023-04-18T04:01:44.471Z,779.00
2023-04-18T04:02:44.577Z,770.00
2023-04-18T04:03:44.668Z,772.00
2023-04-18T04:04:44.609Z,782.00
2023-04-18T04:05:44.578Z,782.00
2023-04-18T04:06:44.640Z,763.00
2023-04-18T04:07:44.666Z,769.00
2023-04-18T04:08:44.676Z,747.00
2023-04-18T04:09:44.779Z,762.00
2023-04-18T04:10:44.751Z,777.00
2023-04-18T04:11:44.781Z,764.00
2023-04-18T04:12:44.846Z,761.00
2023-04-18T04:13:44.919Z,767.00
2023-04-18T04:14:44.894Z,760.00
2023-04-18T04:15:44.946Z,774.00
2023-04-18T04:16:45.083Z,752.00
2023-04-18T04:17:45.075Z,762.00
2023-04-18T04:18:45.054Z,755.00
2023-04-18T04:19:45.144Z,759.00
2023-04-18T04:20:45.158Z,763.00
2023-04-18T04:21:45.160Z,770.00
2023-04-18T04:22:45.198Z,761.00
2023-04-18T04:23:45.263Z,759.00
2023-04-18T04:24:45.290Z,770.00
2023-04-18T04:25:45.335Z,757.00
2023-04-18T04:26:45.364Z,740.00
2023-04-18T04:27:45.392Z,760.00
2023-04-18T04:28:45.444Z,746.00
2023-04-18T04:29:45.491Z,757.00
2023-04-18T04:30:45.567Z,773.00
2023-04-18T04:31:45.605Z,756.00
2023-04-18T04:32:45.701Z,766.00
2023-04-18T04:33:45.649Z,754.00
2023-04-18T04:34:45.675Z,763.00
2023-04-18T04:35:45.734Z,757.00
2023-04-18T04:36:45.748Z,765.00
2023-04-18T04:37:45.792Z,753.00
2023-04-18T04:38:45.834Z,765.00
2023-04-18T04:39:45.908Z,768.00
2023-04-18T04:40:45.913Z,760.00
2023-04-18T04:41:45.937Z,775.00
2023-04-18T04:42:45.976Z,770.00
2023-04-18T04:43:46.011Z,780.00
2023-04-18T04:44:46.075Z,770.00
2023-04-18T04:45:46.123Z,772.00
2023-04-18T04:46:46.125Z,778.00
2023-04-18T04:47:46.228Z,780.00
2023-04-18T04:48:46.199Z,783.00
2023-04-18T04:49:46.232Z,771.00
2023-04-18T04:50:46.279Z,774.00
2023-04-18T04:51:46.335Z,779.00
2023-04-18T04:52:46.342Z,785.00
2023-04-18T04:53:46.398Z,767.00
2023-04-18T04:54:46.427Z,771.00
2023-04-18T04:55:46.444Z,778.00
2023-04-18T04:56:46.497Z,782.00
2023-04-18T04:57:46.566Z,785.00
2023-04-18T04:58:46.551Z,785.00
2023-04-18T04:59:46.622Z,781.00
2023-04-18T05:00:46.649Z,781.00
2023-04-18T05:01:46.781Z,789.00
2023-04-18T05:02:46.865Z,785.00
2023-04-18T05:03:46.879Z,792.00
2023-04-18T05:04:46.814Z,779.00
2023-04-18T05:05:46.840Z,797.00
2023-04-18T05:06:46.871Z,773.00
2023-04-18T05:07:46.897Z,795.00
2023-04-18T05:08:46.944Z,772.00
2023-04-18T05:09:46.993Z,777.00
2023-04-18T05:10:47.008Z,788.00
2023-04-18T05:11:47.122Z,776.00
2023-04-18T05:12:47.119Z,764.00
2023-04-18T05:13:47.159Z,765.00
2023-04-18T05:14:47.158Z,774.00
2023-04-18T05:15:47.235Z,773.00
2023-04-18T05:16:47.245Z,770.00
2023-04-18T05:17:47.321Z,779.00
2023-04-18T05:18:47.320Z,769.00
2023-04-18T05:19:47.369Z,789.00
2023-04-18T05:20:47.416Z,791.00
2023-04-18T05:21:47.449Z,779.00
2023-04-18T05:22:47.809Z,766.00
2023-04-18T05:23:47.534Z,762.00
2023-04-18T05:24:47.593Z,757.00
2023-04-18T05:25:47.632Z,750.00
2023-04-18T05:26:47.686Z,750.00
2023-04-18T05:27:47.827Z,761.00
2023-04-18T05:28:47.759Z,753.00
2023-04-18T05:29:47.817Z,759.00
2023-04-18T05:30:47.912Z,750.00
2023-04-18T05:31:47.855Z,747.00
2023-04-18T05:32:47.933Z,732.00
2023-04-18T05:33:47.898Z,722.00
2023-04-18T05:34:48.348Z,740.00
2023-04-18T05:35:48.156Z,731.00
2023-04-18T05:36:47.940Z,734.00
2023-04-18T05:37:48.083Z,767.00
2023-04-18T05:38:47.994Z,797.00
2023-04-18T05:39:48.315Z,800.00
2023-04-18T05:40:48.027Z,820.00
2023-04-18T05:41:47.962Z,875.00
2023-04-18T05:42:48.334Z,900.00
2023-04-18T05:43:58.194Z,909.00
2023-04-18T05:44:49.341Z,911.00
2023-04-18T05:45:48.124Z,917.00
2023-04-18T05:46:48.186Z,931.00
2023-04-18T05:47:48.086Z,963.00
2023-04-18T05:48:48.047Z,1027.00
2023-04-18T05:49:48.349Z,1048.00
2023-04-18T05:50:48.072Z,1075.00
2023-04-18T05:51:48.004Z,1089.00
2023-04-18T05:52:47.995Z,1131.00
2023-04-18T05:53:48.306Z,1139.00
2023-04-18T05:54:48.030Z,1182.00
2023-04-18T05:55:48.002Z,1200.00
2023-04-18T05:56:48.004Z,1201.00
2023-04-18T05:57:48.043Z,1225.00
2023-04-18T05:58:48.053Z,1237.00
2023-04-18T05:59:48.078Z,1256.00
2023-04-18T06:00:48.138Z,1256.00
2023-04-18T06:01:48.113Z,1275.00
2023-04-18T06:02:48.265Z,1294.00
2023-04-18T06:03:48.318Z,1322.00
2023-04-18T06:04:48.283Z,1326.00
2023-04-18T06:05:48.226Z,1352.00
2023-04-18T06:06:48.191Z,1361.00
2023-04-18T06:07:48.201Z,1387.00
2023-04-18T06:08:48.236Z,1389.00
2023-04-18T06:09:48.238Z,1397.00
2023-04-18T06:10:48.244Z,1410.00
2023-04-18T06:11:48.208Z,1444.00
2023-04-18T06:12:48.245Z,1449.00
2023-04-18T06:13:48.368Z,1475.00
2023-04-18T06:14:48.239Z,1474.00
2023-04-18T06:15:48.270Z,1488.00
2023-04-18T06:16:48.209Z,1490.00
2023-04-18T06:17:48.263Z,1497.00
2023-04-18T06:18:48.224Z,1512.00
2023-04-18T06:19:48.210Z,1511.00
2023-04-18T06:20:48.207Z,1542.00
2023-04-18T06:21:48.288Z,1538.00
2023-04-18T06:22:48.297Z,1586.00
2023-04-18T06:23:48.229Z,1573.00
2023-04-18T06:24:48.282Z,1581.00
2023-04-18T06:25:48.357Z,1597.00
2023-04-18T06:26:49.048Z,1623.00
2023-04-18T06:27:48.322Z,1636.00
2023-04-18T06:28:48.434Z,1643.00
2023-04-18T06:29:48.454Z,1674.00
2023-04-18T06:30:48.455Z,1662.00
2023-04-18T06:31:48.544Z,1692.00
2023-04-18T06:32:48.573Z,1688.00
2023-04-18T06:33:48.543Z,1692.00
2023-04-18T06:34:48.597Z,1701.00
2023-04-18T06:35:48.642Z,1703.00
2023-04-18T06:36:48.669Z,1710.00
2023-04-18T06:37:48.736Z,1744.00
2023-04-18T06:38:48.861Z,1653.00
2023-04-18T06:39:48.856Z,1483.00
2023-04-18T06:40:49.350Z,1359.00
2023-04-18T06:41:49.351Z,1324.00
2023-04-18T06:42:48.866Z,1241.00
2023-04-18T06:44:02.160Z,1149.00
2023-04-18T06:44:49.908Z,1135.00
2023-04-18T06:45:49.404Z,1090.00
2023-04-18T06:46:48.870Z,1044.00
2023-04-18T06:47:49.016Z,1015.00
2023-04-18T06:48:49.873Z,942.00
2023-04-18T06:49:49.068Z,887.00
2023-04-18T06:50:49.337Z,917.00
2023-04-18T06:51:49.206Z,960.00
2023-04-18T06:52:49.187Z,986.00
2023-04-18T06:53:49.252Z,994.00
2023-04-18T06:54:49.292Z,1014.00
2023-04-18T06:55:49.339Z,1021.00
2023-04-18T06:56:49.388Z,1038.00
2023-04-18T06:57:49.439Z,1033.00
2023-04-18T06:58:49.508Z,1038.00
2023-04-18T06:59:49.494Z,1037.00
2023-04-18T07:00:49.920Z,1052.00
2023-04-18T07:01:49.559Z,1040.00
2023-04-18T07:02:49.694Z,1043.00
2023-04-18T07:03:50.442Z,1067.00
2023-04-18T07:04:49.644Z,1112.00
2023-04-18T07:05:49.859Z,1126.00
2023-04-18T07:06:49.636Z,1125.00
2023-04-18T07:07:49.681Z,1125.00
2023-04-18T07:08:49.666Z,1139.00
2023-04-18T07:09:49.639Z,1140.00
2023-04-18T07:10:49.648Z,1152.00
2023-04-18T07:11:49.674Z,1147.00
2023-04-18T07:12:49.640Z,1157.00
2023-04-18T07:13:49.640Z,1162.00
2023-04-18T07:14:49.648Z,1167.00
2023-04-18T07:15:49.687Z,1171.00
2023-04-18T07:16:49.729Z,1189.00
2023-04-18T07:17:49.787Z,1172.00
2023-04-18T07:18:49.798Z,1167.00
2023-04-18T07:19:49.794Z,1175.00
2023-04-18T07:20:49.848Z,1201.00
2023-04-18T07:21:49.918Z,1213.00
2023-04-18T07:22:49.936Z,1214.00
2023-04-18T07:23:49.998Z,1256.00
2023-04-18T07:24:50.059Z,1261.00
2023-04-18T07:25:50.116Z,1269.00
2023-04-18T07:26:50.208Z,1255.00
2023-04-18T07:27:50.243Z,1265.00
2023-04-18T07:28:50.357Z,1290.00
2023-04-18T07:29:50.430Z,1265.00
2023-04-18T07:30:50.491Z,1270.00
2023-04-18T07:31:50.523Z,1268.00
2023-04-18T07:32:50.625Z,1278.00
2023-04-18T07:33:50.900Z,1257.00
2023-04-18T07:34:50.603Z,1281.00
2023-04-18T07:35:50.680Z,1332.00
2023-04-18T07:36:50.703Z,1368.00
2023-04-18T07:37:50.758Z,1419.00
2023-04-18T07:38:50.901Z,1492.00
2023-04-18T07:39:50.809Z,1473.00
2023-04-18T07:40:50.811Z,1470.00
2023-04-18T07:41:50.826Z,1476.00
2023-04-18T07:42:50.862Z,1472.00
2023-04-18T07:43:50.954Z,1476.00
2023-04-18T07:44:51.001Z,1519.00
2023-04-18T07:45:51.110Z,1545.00
2023-04-18T07:46:51.858Z,1545.00
2023-04-18T07:47:51.221Z,1566.00
2023-04-18T07:48:51.239Z,1576.00
2023-04-18T07:49:51.399Z,1581.00
2023-04-18T07:50:51.380Z,1568.00
2023-04-18T07:51:51.389Z,1608.00
2023-04-18T07:52:51.444Z,1616.00
2023-04-18T07:53:51.518Z,1617.00
2023-04-18T07:54:51.521Z,1629.00
2023-04-18T07:55:51.957Z,1647.00
2023-04-18T07:56:51.640Z,1642.00
2023-04-18T07:57:51.684Z,1616.00
2023-04-18T07:58:51.712Z,1663.00
2023-04-18T07:59:51.883Z,1695.00
2023-04-18T08:00:51.887Z,1697.00
2023-04-18T08:01:51.959Z,1667.00
2023-04-18T08:02:52.033Z,1680.00
2023-04-18T08:03:52.225Z,1701.00
2023-04-18T08:04:52.348Z,1712.00
2023-04-18T08:05:52.043Z,1703.00
2023-04-18T08:06:52.797Z,1694.00
2023-04-18T08:07:52.123Z,1694.00
2023-04-18T08:08:52.145Z,1681.00
2023-04-18T08:09:52.216Z,1697.00
2023-04-18T08:10:52.228Z,1731.00
2023-04-18T08:11:52.255Z,1705.00
2023-04-18T08:12:52.315Z,1720.00
2023-04-18T08:13:52.344Z,1754.00
2023-04-18T08:14:52.386Z,1736.00
2023-04-18T08:15:52.431Z,1759.00
2023-04-18T08:16:52.446Z,1878.00
2023-04-18T08:17:52.510Z,1849.00
2023-04-18T08:18:52.529Z,1808.00
2023-04-18T08:19:52.533Z,1806.00
2023-04-18T08:20:52.606Z,1827.00
2023-04-18T08:21:52.577Z,1819.00
2023-04-18T08:23:05.609Z,1804.00
2023-04-18T08:23:53.606Z,1806.00
2023-04-18T08:25:04.317Z,1624.00
2023-04-18T08:25:53.906Z,1650.00
2023-04-18T08:26:52.576Z,1612.00
2023-04-18T08:27:52.583Z,1609.00
2023-04-18T08:28:52.560Z,1571.00
2023-04-18T08:29:52.589Z,1410.00
2023-04-18T08:30:53.418Z,1368.00
2023-04-18T08:31:52.618Z,1196.00
2023-04-18T08:32:52.714Z,1364.00
2023-04-18T08:33:52.567Z,1339.00
2023-04-18T08:34:52.916Z,1064.00
2023-04-18T08:35:52.538Z,1285.00
2023-04-18T08:36:52.549Z,1208.00
2023-04-18T08:37:52.540Z,953.00
2023-04-18T08:38:52.583Z,1008.00
2023-04-18T08:39:52.902Z,1091.00
2023-04-18T08:40:52.924Z,904.00
2023-04-18T08:41:52.714Z,759.00
2023-04-18T08:42:52.810Z,768.00
2023-04-18T08:43:53.440Z,669.00
2023-04-18T08:44:52.947Z,653.00
2023-04-18T08:45:52.935Z,632.00
2023-04-18T08:46:53.423Z,633.00
2023-04-18T08:47:53.125Z,663.00
2023-04-18T08:48:53.013Z,648.00
2023-04-18T08:49:52.983Z,633.00
2023-04-18T08:50:53.424Z,571.00
2023-04-18T08:51:52.969Z,630.00
2023-04-18T08:52:52.982Z,648.00
2023-04-18T08:53:53.043Z,582.00
2023-04-18T08:54:53.419Z,632.00
2023-04-18T08:55:53.416Z,550.00
2023-04-18T08:56:53.063Z,499.00
2023-04-18T08:57:53.093Z,563.00
2023-04-18T08:58:53.062Z,562.00
2023-04-18T08:59:53.434Z,566.00
2023-04-18T09:00:53.082Z,540.00
2023-04-18T09:01:53.132Z,526.00
2023-04-18T09:02:53.174Z,486.00
2023-04-18T09:03:53.146Z,485.00
2023-04-18T09:04:53.075Z,538.00
2023-04-18T09:05:53.058Z,541.00
2023-04-18T09:06:53.075Z,534.00
2023-04-18T09:07:53.048Z,517.00
2023-04-18T09:08:53.063Z,556.00
2023-04-18T09:09:53.058Z,544.00
2023-04-18T09:10:53.088Z,509.00
2023-04-18T09:11:53.087Z,515.00
2023-04-18T09:12:53.056Z,507.00
2023-04-18T09:13:53.046Z,500.00
2023-04-18T09:14:53.062Z,476.00
2023-04-18T09:15:53.114Z,516.00
2023-04-18T09:16:53.071Z,509.00
2023-04-18T09:17:53.122Z,506.00
2023-04-18T09:18:53.065Z,499.00
2023-04-18T09:19:53.088Z,503.00
2023-04-18T09:20:53.462Z,500.00
2023-04-18T09:21:53.490Z,504.00
2023-04-18T09:22:53.103Z,504.00
2023-04-18T09:23:53.109Z,505.00
2023-04-18T09:24:53.109Z,542.00
2023-04-18T09:25:53.119Z,544.00
2023-04-18T09:26:53.199Z,501.00
2023-04-18T09:27:53.138Z,552.00
2023-04-18T09:28:53.966Z,559.00
2023-04-18T09:29:53.807Z,510.00
2023-04-18T09:30:53.463Z,507.00
2023-04-18T09:31:53.149Z,460.00
2023-04-18T09:32:53.194Z,467.00
2023-04-18T09:33:53.198Z,500.00
2023-04-18T09:34:53.242Z,514.00
2023-04-18T09:35:53.433Z,506.00
2023-04-18T09:36:53.365Z,525.00
2023-04-18T09:37:53.326Z,550.00
2023-04-18T09:38:56.203Z,524.00
2023-04-18T09:39:53.415Z,515.00
2023-04-18T09:40:53.345Z,501.00
2023-04-18T09:41:53.352Z,527.00
2023-04-18T09:42:53.342Z,541.00
2023-04-18T09:43:53.334Z,516.00
2023-04-18T09:44:54.575Z,520.00
2023-04-18T09:45:53.481Z,513.00
2023-04-18T09:46:53.304Z,521.00
2023-04-18T09:47:53.388Z,509.00
2023-04-18T09:48:53.313Z,510.00
2023-04-18T09:49:53.297Z,508.00
2023-04-18T09:50:53.452Z,508.00
2023-04-18T09:51:53.423Z,504.00
2023-04-18T09:52:53.257Z,504.00
2023-04-18T09:53:53.313Z,500.00
2023-04-18T09:54:53.260Z,534.00
2023-04-18T09:55:54.869Z,547.00
2023-04-18T09:56:53.267Z,536.00
2023-04-18T09:57:53.234Z,537.00
2023-04-18T09:58:53.244Z,558.00
2023-04-18T09:59:53.239Z,559.00
2023-04-18T10:00:53.234Z,561.00
2023-04-18T10:01:53.301Z,522.00
2023-04-18T10:02:53.340Z,518.00
2023-04-18T10:03:53.244Z,564.00
2023-04-18T10:04:53.270Z,551.00
2023-04-18T10:05:53.179Z,514.00
2023-04-18T10:06:53.998Z,514.00
2023-04-18T10:07:53.160Z,513.00
2023-04-18T10:08:53.164Z,537.00
2023-04-18T10:09:53.155Z,533.00
2023-04-18T10:10:53.153Z,542.00
2023-04-18T10:11:53.148Z,550.00
2023-04-18T10:12:53.141Z,540.00
2023-04-18T10:13:53.148Z,503.00
2023-04-18T10:14:53.201Z,526.00
2023-04-18T10:15:53.152Z,504.00
2023-04-18T10:16:53.094Z,524.00
2023-04-18T10:18:03.337Z,535.00
2023-04-18T10:18:54.082Z,536.00
2023-04-18T10:19:53.069Z,538.00
2023-04-18T10:20:53.102Z,514.00
2023-04-18T10:21:53.093Z,516.00
2023-04-18T10:22:53.059Z,525.00
2023-04-18T10:23:53.057Z,538.00
2023-04-18T10:24:53.117Z,504.00
2023-04-18T10:25:53.083Z,520.00
2023-04-18T10:26:53.453Z,518.00
2023-04-18T10:27:53.093Z,515.00
2023-04-18T10:28:53.343Z,515.00
2023-04-18T10:29:53.115Z,524.00
2023-04-18T10:30:53.080Z,1961.00
2023-04-18T10:31:53.589Z,1540.00
2023-04-18T10:32:53.219Z,1125.00
2023-04-18T10:34:03.795Z,1192.00
2023-04-18T10:34:54.172Z,1194.00
2023-04-18T10:35:53.158Z,1218.00
2023-04-18T10:36:53.142Z,1267.00
2023-04-18T10:37:53.144Z,1311.00
2023-04-18T10:38:53.157Z,1127.00
2023-04-18T10:39:53.152Z,1210.00
2023-04-18T10:40:53.137Z,1472.00
2023-04-18T10:41:53.120Z,1524.00
2023-04-18T10:42:53.115Z,1617.00
2023-04-18T10:43:53.106Z,1681.00
2023-04-18T10:44:53.127Z,1736.00
2023-04-18T10:45:53.097Z,1831.00
2023-04-18T10:46:53.228Z,1879.00
2023-04-18T10:47:53.162Z,1907.00
2023-04-18T10:48:53.085Z,1926.00
2023-04-18T10:49:53.148Z,1946.00
2023-04-18T10:50:53.218Z,1980.00
2023-04-18T10:51:53.420Z,2002.00
2023-04-18T10:52:53.307Z,2027.00
2023-04-18T10:53:53.358Z,2061.00
2023-04-18T10:54:53.394Z,2078.00
2023-04-18T10:55:53.491Z,2126.00
2023-04-18T10:56:53.586Z,2228.00
2023-04-18T10:57:53.528Z,2227.00
2023-04-18T10:58:53.562Z,2226.00
2023-04-18T10:59:53.685Z,2238.00
2023-04-18T11:00:53.647Z,2245.00
2023-04-18T11:01:53.677Z,2247.00
2023-04-18T11:02:53.878Z,2271.00
2023-04-18T11:03:53.855Z,2295.00
2023-04-18T11:04:53.785Z,2309.00
2023-04-18T11:05:53.859Z,2317.00
2023-04-18T11:06:53.832Z,2324.00
2023-04-18T11:07:53.894Z,2369.00
2023-04-18T11:08:53.906Z,2403.00
2023-04-18T11:09:53.976Z,2448.00
2023-04-18T11:10:53.985Z,2471.00
2023-04-18T11:11:54.057Z,2489.00
2023-04-18T11:12:54.064Z,2528.00
2023-04-18T11:13:54.116Z,2520.00
2023-04-18T11:14:54.122Z,2521.00
2023-04-18T11:15:54.171Z,2548.00
2023-04-18T11:16:54.455Z,2182.00
2023-04-18T11:17:54.326Z,2424.00
2023-04-18T11:18:54.255Z,2556.00
2023-04-18T11:19:54.321Z,2571.00
2023-04-18T11:20:54.396Z,2540.00
2023-04-18T11:21:54.463Z,2530.00
2023-04-18T11:22:54.434Z,2537.00
2023-04-18T11:23:54.449Z,2538.00
2023-04-18T11:24:54.483Z,2543.00
2023-04-18T11:25:54.504Z,2544.00
2023-04-18T11:26:55.471Z,2537.00
2023-04-18T11:27:54.562Z,2536.00
2023-04-18T11:28:54.612Z,2530.00
2023-04-18T11:29:54.645Z,2532.00
2023-04-18T11:30:54.737Z,2517.00
2023-04-18T11:31:57.734Z,2519.00
2023-04-18T11:32:54.716Z,2534.00
2023-04-18T11:33:54.714Z,2523.00
2023-04-18T11:34:54.704Z,2510.00
2023-04-18T11:35:54.687Z,2509.00
2023-04-18T11:36:54.673Z,2518.00
2023-04-18T11:37:54.676Z,2496.00
2023-04-18T11:38:54.657Z,2520.00
2023-04-18T11:39:54.667Z,2485.00
2023-04-18T11:40:54.669Z,2480.00
2023-04-18T11:41:54.649Z,2467.00
2023-04-18T11:42:54.665Z,2451.00
2023-04-18T11:43:54.651Z,2426.00
2023-04-18T11:44:54.631Z,2440.00
2023-04-18T11:45:54.690Z,2430.00
2023-04-18T11:46:54.630Z,2399.00
2023-04-18T11:47:54.606Z,2372.00
2023-04-18T11:48:54.605Z,2379.00
2023-04-18T11:49:56.900Z,2365.00
2023-04-18T11:50:54.693Z,2364.00
2023-04-18T11:51:54.758Z,2373.00
2023-04-18T11:52:54.829Z,2353.00
2023-04-18T11:53:54.888Z,2326.00
2023-04-18T11:54:54.967Z,2318.00
2023-04-18T11:55:54.949Z,2322.00
2023-04-18T11:56:55.008Z,2337.00
2023-04-18T11:57:55.055Z,2345.00
2023-04-18T11:58:55.101Z,2315.00
2023-04-18T11:59:55.159Z,2303.00
2023-04-18T12:00:55.200Z,2281.00
2023-04-18T12:01:58.608Z,2294.00
2023-04-18T12:02:55.381Z,2303.00
2023-04-18T12:03:55.388Z,2249.00
2023-04-18T12:04:55.775Z,2210.00
2023-04-18T12:05:55.381Z,2209.00
2023-04-18T12:06:55.234Z,2207.00
2023-04-18T12:07:55.242Z,2196.00
2023-04-18T12:08:55.228Z,2213.00
2023-04-18T12:09:55.238Z,2205.00
2023-04-18T12:10:55.204Z,2205.00
2023-04-18T12:11:55.231Z,2180.00
2023-04-18T12:12:55.289Z,2169.00
2023-04-18T12:13:55.226Z,2148.00
2023-04-18T12:14:55.189Z,2158.00
2023-04-18T12:15:55.232Z,2154.00
2023-04-18T12:16:55.212Z,2158.00
2023-04-18T12:17:55.203Z,2152.00
2023-04-18T12:18:55.186Z,2153.00
2023-04-18T12:19:55.137Z,2155.00